Terminal Aerodrome Forecast
Issued by NWS

Home | Current Version | Previous Version | Text Only | Print | Product List | Glossary On
Versions: 1 2 3 4 5 6 7 8 9 10 11 12 13 14 15 16 17 18 19
109
FTUS43 KPAH 011515 AAA
TAFCGI
TAF AMD
KCGI 011515Z 0115/0212 27010KT P6SM SCT025 BKN060
      TEMPO 0115/0118 BKN025
     FM011800 30007KT P6SM VCSH BKN020
     FM020100 VRB02KT P6SM BKN040
     FM020600 00000KT 1SM BR SCT050=

USA.gov is the U.S. government's official web portal to all federal, state and local government web resources and services.